Time;durP1;ratioP1;P1;durP2;ratioP2;P2;SDS_P1;SDS_P2;PMS_P1;PMS_P2;Temp;Humidity;BMP_temperature;BMP_pressure;BME280_temperature;BME280_humidity;BME280_pressure;Samples;Min_cycle;Max_cycle;Signal;HPM_P1;HPM_P2
2024/01/20 00:01:44;;;;;;;3.88;1.10;;;;;;;0.33;76.12;93719.25;5102817;28;20056;-73
2024/01/20 00:04:09;;;;;;;3.03;1.05;;;;;;;0.29;76.04;93749.63;5102878;28;20046;-72
2024/01/20 00:06:35;;;;;;;2.00;1.20;;;;;;;0.19;76.50;93721.50;5102584;28;20027;-72
2024/01/20 00:09:00;;;;;;;2.60;1.02;;;;;;;0.20;77.17;93730.94;5102992;28;20016;-72
2024/01/20 00:11:25;;;;;;;3.67;1.17;;;;;;;0.16;77.20;93728.03;5102855;28;20249;-71
2024/01/20 00:13:51;;;;;;;3.25;1.38;;;;;;;0.22;76.60;93730.69;5102875;28;20098;-71
2024/01/20 00:16:16;;;;;;;2.58;0.93;;;;;;;0.12;76.07;93719.09;5102862;28;20086;-72
2024/01/20 00:18:42;;;;;;;2.38;1.02;;;;;;;0.06;76.11;93740.25;5102912;28;20028;-72
2024/01/20 00:21:07;;;;;;;2.95;1.27;;;;;;;0.08;76.46;93743.41;5102695;28;20318;-72
2024/01/20 00:23:32;;;;;;;3.28;1.40;;;;;;;0.13;76.49;93752.13;5102768;28;20219;-72
2024/01/20 00:25:58;;;;;;;2.53;1.20;;;;;;;0.05;76.13;93755.19;5102771;28;20028;-72
2024/01/20 00:28:23;;;;;;;1.98;0.85;;;;;;;0.03;75.03;93759.91;5102617;28;20081;-71
2024/01/20 00:30:49;;;;;;;2.00;1.10;;;;;;;-0.07;75.51;93773.69;5102602;28;20020;-72
2024/01/20 00:33:14;;;;;;;3.88;1.10;;;;;;;-0.05;75.73;93776.06;5102698;28;20052;-72
2024/01/20 00:35:42;;;;;;;2.05;0.88;;;;;;;-0.09;75.92;93795.94;5102663;28;20009;-72
2024/01/20 00:38:08;;;;;;;3.22;1.42;;;;;;;-0.14;75.80;93770.50;5102751;28;20024;-72
2024/01/20 00:40:33;;;;;;;1.70;1.02;;;;;;;-0.22;75.82;93790.06;5102625;28;20044;-71
2024/01/20 00:42:59;;;;;;;2.15;0.95;;;;;;;-0.27;76.25;93776.13;5102573;28;20035;-72
2024/01/20 00:45:24;;;;;;;1.52;0.90;;;;;;;-0.31;76.61;93785.53;5102542;28;20091;-72
2024/01/20 00:47:49;;;;;;;4.07;1.60;;;;;;;-0.33;77.12;93788.38;5102624;28;20020;-72
2024/01/20 00:50:15;;;;;;;2.10;0.95;;;;;;;-0.43;76.52;93802.19;5101355;28;20344;-72
2024/01/20 00:52:40;;;;;;;1.40;0.77;;;;;;;-0.58;76.87;93841.28;5102580;28;20040;-72
2024/01/20 00:55:06;;;;;;;2.35;1.00;;;;;;;-0.69;77.69;93777.53;5102366;28;20091;-71
2024/01/20 00:57:31;;;;;;;1.55;1.00;;;;;;;-0.64;78.27;93785.44;5102678;28;20059;-71
2024/01/20 00:59:57;;;;;;;2.50;1.08;;;;;;;-0.60;78.11;93796.22;5101254;28;20242;-71
2024/01/20 01:02:24;;;;;;;2.03;1.08;;;;;;;-0.58;77.87;93815.09;5102127;28;20043;-71
2024/01/20 01:04:50;;;;;;;2.47;1.33;;;;;;;-0.59;78.15;93816.13;5102547;28;20095;-70
2024/01/20 01:07:15;;;;;;;2.88;1.10;;;;;;;-0.57;77.91;93815.88;5102385;28;20226;-70
2024/01/20 01:09:40;;;;;;;2.10;1.05;;;;;;;-0.61;77.88;93833.91;5104318;28;20024;-71
2024/01/20 01:12:06;;;;;;;2.22;1.10;;;;;;;-0.64;78.45;93829.16;5106033;28;20020;-71
2024/01/20 01:14:32;;;;;;;1.92;1.10;;;;;;;-0.59;78.20;93815.31;5106035;28;20020;-71
2024/01/20 01:16:57;;;;;;;1.88;1.13;;;;;;;-0.63;78.18;93839.38;5105934;28;20138;-71
2024/01/20 01:19:23;;;;;;;2.38;1.08;;;;;;;-0.71;77.93;93821.50;5105893;28;20077;-71
2024/01/20 01:21:48;;;;;;;2.17;1.10;;;;;;;-0.75;78.37;93814.34;5105805;28;20032;-71
2024/01/20 01:24:14;;;;;;;1.73;1.30;;;;;;;-0.78;78.66;93849.66;5105899;28;20031;-71
2024/01/20 01:26:39;;;;;;;1.95;1.13;;;;;;;-0.86;78.81;93824.69;5105898;28;20051;-72
2024/01/20 01:29:05;;;;;;;1.98;1.20;;;;;;;-0.84;78.41;93846.19;5105829;28;20024;-71
2024/01/20 01:31:30;;;;;;;1.90;1.27;;;;;;;-0.79;79.37;93827.16;5105697;28;20040;-71
2024/01/20 01:33:56;;;;;;;2.60;1.02;;;;;;;-0.71;80.06;93826.72;5105569;28;20068;-71
2024/01/20 01:36:21;;;;;;;2.80;1.40;;;;;;;-0.70;78.66;93832.75;5105593;28;20031;-71
2024/01/20 01:38:46;;;;;;;2.60;1.10;;;;;;;-0.67;79.20;93827.81;5104504;28;20047;-72
2024/01/20 01:41:12;;;;;;;2.17;1.20;;;;;;;-0.70;79.58;93828.28;5105572;28;20024;-72
2024/01/20 01:43:38;;;;;;;1.83;1.15;;;;;;;-0.72;80.91;93819.91;5104205;28;20036;-72
2024/01/20 01:46:03;;;;;;;3.53;1.30;;;;;;;-0.67;82.22;93806.06;5105396;28;20024;-72
2024/01/20 01:48:29;;;;;;;2.33;1.13;;;;;;;-0.72;83.04;93813.88;5105395;28;20023;-72
2024/01/20 01:50:56;;;;;;;2.50;1.38;;;;;;;-0.86;82.87;93826.53;5105256;28;20016;-72
2024/01/20 01:53:21;;;;;;;2.53;1.55;;;;;;;-0.98;84.03;93804.91;5105339;28;20064;-73
2024/01/20 01:55:47;;;;;;;3.88;1.20;;;;;;;-1.09;85.69;93810.00;5105302;28;20027;-72
2024/01/20 01:58:13;;;;;;;2.05;1.25;;;;;;;-1.15;86.74;93824.06;5105097;28;20035;-72
2024/01/20 02:00:39;;;;;;;3.10;1.73;;;;;;;-1.26;86.65;93836.22;5105016;28;20023;-72
2024/01/20 02:03:05;;;;;;;2.15;1.38;;;;;;;-1.34;87.44;93838.41;5105032;28;20024;-72
2024/01/20 02:05:30;;;;;;;7.18;1.60;;;;;;;-1.44;88.47;93834.63;5104935;28;20020;-72
2024/01/20 02:07:58;;;;;;;2.53;1.65;;;;;;;-1.43;88.91;93851.88;5105020;28;20027;-72
2024/01/20 02:10:24;;;;;;;2.05;1.15;;;;;;;-1.54;88.42;93824.03;5104974;28;20195;-72
2024/01/20 02:12:50;;;;;;;2.70;1.48;;;;;;;-1.56;89.19;93831.31;5104949;28;20028;-72
2024/01/20 02:15:16;;;;;;;3.03;1.40;;;;;;;-1.54;89.67;93833.69;5104708;28;20203;-72
2024/01/20 02:17:53;;;;;;;2.55;1.33;;;;;;;-1.52;90.07;93836.88;5104748;28;20035;-71
2024/01/20 02:20:19;;;;;;;2.72;1.38;;;;;;;-1.55;89.70;93825.03;5104819;28;20032;-72
2024/01/20 02:22:45;;;;;;;3.85;1.60;;;;;;;-1.51;90.59;93827.97;5104607;28;20089;-72
2024/01/20 02:25:10;;;;;;;3.35;1.65;;;;;;;-1.55;89.38;93827.66;5104621;28;20035;-72
2024/01/20 02:27:36;;;;;;;1.77;1.27;;;;;;;-1.58;89.93;93828.13;5104428;28;20092;-72
2024/01/20 02:30:01;;;;;;;2.40;1.45;;;;;;;-1.70;88.99;93825.59;5104618;28;20031;-71
2024/01/20 02:32:26;;;;;;;2.53;1.52;;;;;;;-1.66;89.61;93841.59;5104300;28;20083;-71
2024/01/20 02:34:52;;;;;;;2.60;1.48;;;;;;;-1.83;89.18;93833.75;5104482;28;20091;-71
2024/01/20 02:37:17;;;;;;;2.42;1.30;;;;;;;-1.88;89.46;93857.97;5103307;28;20280;-71
2024/01/20 02:39:43;;;;;;;1.75;1.30;;;;;;;-1.87;89.76;93854.34;5104349;28;20024;-72
2024/01/20 02:42:10;;;;;;;2.35;1.25;;;;;;;-1.82;90.12;93835.34;5104096;28;20024;-72
2024/01/20 02:44:37;;;;;;;2.78;1.50;;;;;;;-1.83;90.98;93863.28;5103998;28;20192;-72
2024/01/20 02:47:02;;;;;;;5.35;1.67;;;;;;;-1.89;90.20;93887.75;5104153;28;20019;-71
2024/01/20 02:49:28;;;;;;;2.75;1.27;;;;;;;-1.92;89.56;93906.50;5104235;28;20099;-71
2024/01/20 02:51:53;;;;;;;2.08;1.15;;;;;;;-1.95;88.03;93890.50;5104031;28;20107;-71
2024/01/20 02:54:19;;;;;;;3.38;1.50;;;;;;;-1.94;86.92;93890.25;5104106;28;20020;-71
2024/01/20 02:56:44;;;;;;;1.88;1.02;;;;;;;-1.94;86.92;93882.41;5103899;28;20263;-71
2024/01/20 02:59:10;;;;;;;2.40;1.30;;;;;;;-1.91;87.07;93892.41;5103970;28;20206;-71
2024/01/20 03:01:35;;;;;;;2.60;1.10;;;;;;;-1.92;86.75;93901.25;5103482;28;20028;-71
2024/01/20 03:04:00;;;;;;;2.90;1.20;;;;;;;-1.87;87.50;93898.75;5103794;28;20218;-71
2024/01/20 03:06:26;;;;;;;2.97;1.52;;;;;;;-1.87;87.42;93901.38;5103787;28;20099;-71
2024/01/20 03:08:52;;;;;;;2.80;1.48;;;;;;;-1.80;87.67;93909.06;5103600;28;20329;-71
2024/01/20 03:11:17;;;;;;;2.30;1.13;;;;;;;-1.80;86.96;93916.88;5103800;28;20012;-71
2024/01/20 03:13:43;;;;;;;2.40;1.33;;;;;;;-1.85;87.16;93896.69;5103693;28;20012;-71
2024/01/20 03:16:09;;;;;;;1.50;0.98;;;;;;;-1.88;87.32;93933.72;5136692;27;20016;-71
2024/01/20 03:18:37;;;;;;;3.83;1.13;;;;;;;-1.99;88.50;93908.47;5103514;28;20062;-71
2024/01/20 03:21:05;;;;;;;3.38;1.50;;;;;;;-1.96;90.18;93921.03;5103429;28;20020;-72
2024/01/20 03:23:30;;;;;;;2.35;1.33;;;;;;;-1.96;90.84;93941.16;5103675;28;20249;-72
2024/01/20 03:25:55;;;;;;;2.47;1.10;;;;;;;-2.08;90.25;93933.34;5103490;28;20145;-72
2024/01/20 03:28:21;;;;;;;3.28;1.60;;;;;;;-2.08;91.59;93930.75;5103537;28;20091;-72
2024/01/20 03:30:47;;;;;;;2.75;1.10;;;;;;;-2.00;92.15;93960.94;5103565;28;20024;-72
2024/01/20 03:33:12;;;;;;;2.75;1.30;;;;;;;-2.02;91.88;93958.53;5103121;28;20073;-72
2024/01/20 03:35:38;;;;;;;2.22;1.40;;;;;;;-2.03;91.31;93967.41;5103137;28;20047;-72
2024/01/20 03:38:04;;;;;;;2.55;1.10;;;;;;;-2.18;90.75;93969.72;5103321;28;20310;-72
2024/01/20 03:40:29;;;;;;;2.65;1.00;;;;;;;-2.24;91.25;93967.03;5103263;28;20027;-72
2024/01/20 03:42:54;;;;;;;1.63;0.80;;;;;;;-2.25;90.64;93969.84;5103142;28;20024;-72
2024/01/20 03:45:20;;;;;;;3.17;1.30;;;;;;;-2.32;90.19;93959.53;5103271;28;20336;-73
2024/01/20 03:47:45;;;;;;;2.13;1.10;;;;;;;-2.29;91.52;93958.28;5103124;28;20024;-72
2024/01/20 03:50:10;;;;;;;3.10;1.58;;;;;;;-2.29;91.60;93951.25;5103044;28;20055;-72
2024/01/20 03:52:36;;;;;;;1.98;1.02;;;;;;;-2.29;92.25;93953.84;5103009;28;20019;-72
2024/01/20 03:55:01;;;;;;;2.40;1.25;;;;;;;-2.30;92.31;93977.56;5103219;28;20028;-72
2024/01/20 03:57:27;;;;;;;3.47;1.23;;;;;;;-2.37;91.55;93974.31;5103068;28;20379;-72
2024/01/20 03:59:52;;;;;;;1.75;1.08;;;;;;;-2.40;92.40;93975.56;5103037;28;20311;-72
2024/01/20 04:02:17;;;;;;;3.17;1.20;;;;;;;-2.37;92.53;93980.31;5102942;28;20040;-72
2024/01/20 04:04:43;;;;;;;1.63;0.90;;;;;;;-2.48;92.28;93988.97;5102982;28;20024;-72
2024/01/20 04:07:09;;;;;;;2.95;1.73;;;;;;;-2.43;92.16;93978.63;5102784;28;20043;-73
2024/01/20 04:09:35;;;;;;;2.83;1.27;;;;;;;-2.38;93.25;93997.00;5101765;28;20038;-73
2024/01/20 04:12:00;;;;;;;2.22;1.10;;;;;;;-2.55;92.02;94001.31;5102950;28;20020;-73
2024/01/20 04:14:26;;;;;;;1.33;0.82;;;;;;;-2.59;92.51;94010.63;5102858;28;20324;-73
2024/01/20 04:16:51;;;;;;;1.40;0.80;;;;;;;-2.59;92.46;94008.81;5102833;28;20031;-73
2024/01/20 04:19:16;;;;;;;2.72;1.30;;;;;;;-2.61;93.87;94018.69;5103061;28;20028;-73
2024/01/20 04:21:43;;;;;;;2.20;1.30;;;;;;;-2.57;94.46;94019.03;5102612;28;20051;-73
2024/01/20 04:24:08;;;;;;;6.72;0.93;;;;;;;-2.65;94.13;94017.56;5102779;28;20218;-73
2024/01/20 04:26:34;;;;;;;5.78;1.20;;;;;;;-2.66;95.00;94029.03;5102660;28;20020;-72
2024/01/20 04:29:00;;;;;;;1.80;1.10;;;;;;;-2.68;94.63;94024.03;5102615;28;20089;-73
2024/01/20 04:31:25;;;;;;;2.55;0.98;;;;;;;-2.70;94.11;94025.28;5102735;28;20012;-72
2024/01/20 04:33:53;;;;;;;2.08;1.13;;;;;;;-2.79;93.94;94035.22;5135864;27;20027;-73
2024/01/20 04:36:19;;;;;;;3.10;1.20;;;;;;;-2.82;94.25;94035.69;5102769;28;20310;-72
2024/01/20 04:38:45;;;;;;;2.33;1.10;;;;;;;-2.90;94.37;94049.06;5102448;28;20024;-73
2024/01/20 04:41:10;;;;;;;2.97;1.20;;;;;;;-2.94;94.34;94046.09;5102535;28;20096;-73
2024/01/20 04:43:36;;;;;;;2.22;1.23;;;;;;;-2.94;94.51;94040.09;5103004;28;20027;-72
2024/01/20 04:46:01;;;;;;;2.97;1.40;;;;;;;-2.95;94.63;94054.16;5106671;28;20085;-72
2024/01/20 04:48:27;;;;;;;1.98;0.98;;;;;;;-2.94;94.27;94042.72;5106594;28;20314;-72
2024/01/20 04:50:52;;;;;;;3.45;1.45;;;;;;;-2.89;94.06;94042.81;5106523;28;20106;-72
2024/01/20 04:53:17;;;;;;;2.08;1.20;;;;;;;-2.88;94.17;94049.63;5106273;28;20311;-72
2024/01/20 04:55:43;;;;;;;1.73;1.17;;;;;;;-2.87;94.14;94057.25;5106136;28;20028;-72
2024/01/20 04:58:08;;;;;;;2.70;1.23;;;;;;;-2.86;94.37;94058.03;5106048;28;20020;-72
2024/01/20 05:00:35;;;;;;;2.35;1.30;;;;;;;-2.92;93.91;94056.31;5106220;28;20031;-71
2024/01/20 05:03:00;;;;;;;2.00;0.93;;;;;;;-2.95;93.62;94054.16;5106145;28;20024;-71
2024/01/20 05:05:26;;;;;;;2.35;1.20;;;;;;;-3.04;93.78;94051.88;5106267;28;20039;-72
2024/01/20 05:07:51;;;;;;;1.15;0.73;;;;;;;-2.97;94.18;94053.56;5106145;28;20085;-71
2024/01/20 05:10:17;;;;;;;2.70;1.27;;;;;;;-2.92;94.71;94070.16;5106263;28;20056;-72
2024/01/20 05:12:42;;;;;;;2.22;1.20;;;;;;;-2.97;94.50;94062.22;5104881;28;20024;-72
2024/01/20 05:15:11;;;;;;;2.00;1.10;;;;;;;-2.98;93.70;94065.03;5105971;28;20024;-71
2024/01/20 05:17:37;;;;;;;3.35;1.73;;;;;;;-3.06;93.60;94071.38;5105801;28;20024;-72
2024/01/20 05:20:04;;;;;;;2.47;1.33;;;;;;;-3.12;93.86;94065.22;5105657;28;20043;-71
2024/01/20 05:22:30;;;;;;;2.88;1.63;;;;;;;-3.06;93.98;94064.34;5105737;28;20099;-72
2024/01/20 05:24:55;;;;;;;2.67;1.08;;;;;;;-3.00;94.72;94073.09;5105634;28;20028;-72
2024/01/20 05:27:20;;;;;;;3.05;1.58;;;;;;;-2.98;94.44;94072.88;5105823;28;20023;-71
2024/01/20 05:29:46;;;;;;;3.22;1.30;;;;;;;-3.04;94.20;94067.50;5105925;28;20032;-71
2024/01/20 05:32:11;;;;;;;3.22;1.85;;;;;;;-3.09;93.98;94077.03;5105575;28;20019;-71
2024/01/20 05:34:37;;;;;;;2.67;1.40;;;;;;;-3.03;94.61;94076.94;5105491;28;20016;-73
2024/01/20 05:37:02;;;;;;;3.47;1.67;;;;;;;-2.97;95.36;94071.84;5105723;28;20036;-73
2024/01/20 05:39:27;;;;;;;3.20;1.38;;;;;;;-2.98;94.72;94070.25;5105489;28;20205;-72
2024/01/20 05:41:53;;;;;;;2.53;1.42;;;;;;;-3.00;94.38;94069.69;5105403;28;20024;-72
2024/01/20 05:44:20;;;;;;;3.97;1.58;;;;;;;-3.00;94.91;94067.09;5105372;28;20092;-72
2024/01/20 05:46:45;;;;;;;3.80;1.63;;;;;;;-3.00;95.40;94083.50;5105477;28;20031;-72
2024/01/20 05:49:10;;;;;;;2.85;1.70;;;;;;;-3.07;93.71;94075.78;5105284;28;20028;-72
2024/01/20 05:51:36;;;;;;;2.28;1.30;;;;;;;-2.97;94.03;94077.06;5105333;28;20047;-71
2024/01/20 05:54:01;;;;;;;3.03;1.50;;;;;;;-3.02;94.65;94070.69;5104025;28;20028;-71
2024/01/20 05:56:27;;;;;;;3.80;1.90;;;;;;;-3.12;94.87;94078.25;5104806;28;20048;-71
2024/01/20 05:58:52;;;;;;;6.95;1.90;;;;;;;-3.04;95.85;94075.34;5105215;28;20098;-71
2024/01/20 06:01:19;;;;;;;5.50;1.77;;;;;;;-3.02;96.66;94069.91;5105153;28;20277;-72
2024/01/20 06:03:44;;;;;;;8.02;1.55;;;;;;;-2.99;96.95;94079.09;5105167;28;20087;-73
2024/01/20 06:06:09;;;;;;;7.70;1.90;;;;;;;-3.03;97.03;94089.19;5105123;28;20028;-73
2024/01/20 06:08:35;;;;;;;2.42;1.50;;;;;;;-3.04;96.82;94080.56;5104950;28;20077;-73
2024/01/20 06:11:00;;;;;;;3.47;1.70;;;;;;;-3.05;96.11;94091.22;5104930;28;20203;-72
2024/01/20 06:13:26;;;;;;;6.05;1.73;;;;;;;-3.04;96.27;94090.19;5104846;28;20047;-72
2024/01/20 06:15:52;;;;;;;5.25;2.25;;;;;;;-3.03;96.40;94094.41;5104931;28;20034;-72
2024/01/20 06:18:17;;;;;;;2.72;1.48;;;;;;;-3.02;95.30;94095.97;5104995;28;20028;-72
2024/01/20 06:20:42;;;;;;;3.60;2.30;;;;;;;-2.98;95.09;94099.72;5104664;28;20047;-72
2024/01/20 06:23:08;;;;;;;3.53;1.52;;;;;;;-3.05;93.41;94101.66;5104568;28;20085;-72
2024/01/20 06:25:34;;;;;;;11.77;2.47;;;;;;;-3.02;93.35;94103.81;5104745;28;20016;-72
2024/01/20 06:27:59;;;;;;;8.10;1.85;;;;;;;-2.95;93.77;94116.75;5104708;28;20023;-72
2024/01/20 06:30:24;;;;;;;6.15;2.20;;;;;;;-2.88;93.92;94135.72;5104555;28;20353;-71
2024/01/20 06:32:50;;;;;;;5.07;2.13;;;;;;;-2.86;94.39;94126.66;5104724;28;20019;-71
2024/01/20 06:35:15;;;;;;;5.78;2.75;;;;;;;-2.90;95.03;94124.72;5104309;28;20061;-72
2024/01/20 06:37:41;;;;;;;4.80;2.15;;;;;;;-2.87;94.64;94139.91;5104452;28;20111;-71
2024/01/20 06:40:08;;;;;;;4.13;1.88;;;;;;;-2.99;93.83;94144.28;5104373;28;20019;-71
2024/01/20 06:42:33;;;;;;;5.32;1.85;;;;;;;-3.05;93.53;94148.59;5104209;28;20327;-72
2024/01/20 06:44:59;;;;;;;3.40;1.63;;;;;;;-3.09;93.13;94143.03;5104177;28;20022;-71
2024/01/20 06:47:25;;;;;;;4.47;1.75;;;;;;;-3.00;93.45;94140.09;5104087;28;20095;-72
2024/01/20 06:49:53;;;;;;;2.72;1.50;;;;;;;-3.12;93.49;94138.22;5104273;28;20319;-72
2024/01/20 06:52:19;;;;;;;3.17;1.40;;;;;;;-3.16;93.58;94142.31;5104215;28;20016;-72
2024/01/20 06:57:29;;;;;;;3.05;1.40;;;;;;;-3.14;92.82;94184.59;5104127;28;20027;-75
2024/01/20 06:59:55;;;;;;;5.10;2.10;;;;;;;-3.13;92.75;94147.09;5104061;28;20039;-77
2024/01/20 07:02:20;;;;;;;15.05;2.25;;;;;;;-3.05;93.26;94159.81;5103988;28;20039;-76
2024/01/20 07:04:46;;;;;;;6.25;1.85;;;;;;;-3.03;93.77;94173.44;5102838;28;20322;-75
2024/01/20 07:07:12;;;;;;;5.47;2.30;;;;;;;-2.99;93.86;94172.97;5102100;28;20334;-75
2024/01/20 07:09:39;;;;;;;7.70;2.22;;;;;;;-3.01;92.34;94175.81;5103824;28;20307;-75
2024/01/20 07:12:06;;;;;;;5.53;2.72;;;;;;;-2.97;92.19;94191.81;5103866;28;20088;-76
2024/01/20 07:14:31;;;;;;;8.00;3.45;;;;;;;-3.03;92.13;94178.66;5103653;28;20032;-77
2024/01/20 07:16:57;;;;;;;6.93;2.92;;;;;;;-2.96;92.00;94177.75;5103642;28;20069;-74
2024/01/20 07:19:22;;;;;;;16.25;2.72;;;;;;;-2.93;91.96;94179.91;5103633;28;20315;-74
2024/01/20 07:21:47;;;;;;;4.32;2.13;;;;;;;-2.95;92.10;94187.16;5103453;28;20200;-74
2024/01/20 07:24:13;;;;;;;3.78;2.22;;;;;;;-3.02;91.57;94188.06;5103443;28;20133;-74
2024/01/20 07:26:38;;;;;;;3.75;1.83;;;;;;;-3.11;91.77;94204.25;5103512;28;20352;-73
2024/01/20 07:29:04;;;;;;;5.63;1.85;;;;;;;-3.13;92.13;94204.47;5103429;28;20314;-73
2024/01/20 07:31:29;;;;;;;4.85;1.77;;;;;;;-3.11;93.04;94194.59;5103376;28;20019;-73
2024/01/20 07:33:55;;;;;;;6.55;3.00;;;;;;;-3.08;93.34;94204.56;5103048;28;20026;-73
2024/01/20 07:36:20;;;;;;;6.03;1.83;;;;;;;-2.98;94.09;94237.19;5103480;28;20020;-64
2024/01/20 07:38:46;;;;;;;3.67;1.70;;;;;;;-3.04;91.91;94216.16;5103156;28;20378;-74
2024/01/20 07:41:11;;;;;;;5.32;2.10;;;;;;;-3.07;92.26;94216.63;5103098;28;20040;-72
2024/01/20 07:43:36;;;;;;;4.90;2.40;;;;;;;-2.99;93.12;94219.91;5102474;28;20027;-74
2024/01/20 07:46:02;;;;;;;4.25;2.10;;;;;;;-3.04;91.96;94221.38;5101663;28;20032;-73
2024/01/20 07:48:27;;;;;;;4.15;2.15;;;;;;;-2.99;91.80;94222.53;5102729;28;20024;-73
2024/01/20 07:50:53;;;;;;;3.65;1.88;;;;;;;-2.98;91.75;94229.34;5103103;28;20031;-74
2024/01/20 07:53:19;;;;;;;4.47;1.60;;;;;;;-2.99;91.71;94232.97;5101425;28;20024;-74
2024/01/20 07:55:44;;;;;;;6.03;2.17;;;;;;;-2.96;92.57;94235.16;5101204;28;20016;-74
2024/01/20 07:58:10;;;;;;;5.32;2.15;;;;;;;-2.91;92.80;94249.13;5100905;28;20213;-74
2024/01/20 08:00:35;;;;;;;6.28;2.45;;;;;;;-2.92;92.22;94238.91;5099788;28;20039;-74
2024/01/20 08:03:00;;;;;;;4.55;2.35;;;;;;;-2.89;92.12;94251.50;5100679;28;20039;-74
2024/01/20 08:05:26;;;;;;;9.43;2.28;;;;;;;-2.92;91.29;94255.34;5101715;28;20035;-73
2024/01/20 08:07:51;;;;;;;3.60;1.60;;;;;;;-2.98;90.80;94264.06;5102228;28;20070;-74
2024/01/20 08:10:17;;;;;;;3.42;1.77;;;;;;;-3.01;90.99;94269.72;5103019;28;20028;-73
2024/01/20 08:12:42;;;;;;;6.45;1.95;;;;;;;-2.99;90.13;94272.09;5102885;28;20260;-74
2024/01/20 08:15:08;;;;;;;5.05;2.53;;;;;;;-2.92;90.56;94283.25;5101544;28;20055;-74
2024/01/20 08:17:34;;;;;;;3.65;1.92;;;;;;;-2.96;91.26;94272.44;5103018;28;20023;-74
2024/01/20 08:19:59;;;;;;;4.20;2.08;;;;;;;-2.91;90.95;94271.78;5106748;28;20036;-74
2024/01/20 08:22:24;;;;;;;6.00;2.40;;;;;;;-2.86;91.24;94269.34;5106948;28;20043;-74
2024/01/20 08:24:50;;;;;;;6.38;2.17;;;;;;;-2.83;90.47;94263.66;5105891;28;20035;-74
2024/01/20 08:27:15;;;;;;;6.85;3.13;;;;;;;-2.84;90.29;94280.34;5106884;28;20022;-74
2024/01/20 08:29:41;;;;;;;6.05;2.17;;;;;;;-2.75;90.08;94307.72;5106840;28;20031;-74
2024/01/20 08:32:06;;;;;;;10.40;2.17;;;;;;;-2.78;89.68;94289.13;5106502;28;20012;-74
2024/01/20 08:34:32;;;;;;;4.18;2.22;;;;;;;-2.68;90.25;94298.00;5106633;28;20091;-74
2024/01/20 08:36:57;;;;;;;4.85;2.20;;;;;;;-2.69;89.19;94303.44;5106625;28;20016;-74
2024/01/20 08:39:22;;;;;;;3.80;2.28;;;;;;;-2.79;89.33;94297.94;5106432;28;20016;-74
2024/01/20 08:41:48;;;;;;;5.03;2.17;;;;;;;-2.82;90.31;94288.75;5106390;28;20020;-74
2024/01/20 08:44:14;;;;;;;3.65;2.10;;;;;;;-2.87;89.96;94301.63;5106553;28;20026;-74
2024/01/20 08:46:39;;;;;;;3.33;1.55;;;;;;;-2.83;89.83;94315.84;5106497;28;20032;-75
2024/01/20 08:49:05;;;;;;;4.63;2.45;;;;;;;-2.94;87.88;94293.09;5106428;28;20118;-74
2024/01/20 08:51:30;;;;;;;5.60;2.53;;;;;;;-2.93;88.17;94337.25;5106184;28;20024;-74
2024/01/20 08:53:56;;;;;;;4.93;1.80;;;;;;;-3.05;88.52;94316.28;5106333;28;20012;-74
2024/01/20 08:56:21;;;;;;;5.05;2.50;;;;;;;-2.98;89.38;94325.84;5106499;28;20141;-74
2024/01/20 08:58:47;;;;;;;4.63;2.35;;;;;;;-3.06;88.97;94319.91;5106254;28;20043;-74
2024/01/20 09:01:13;;;;;;;7.53;3.25;;;;;;;-2.93;89.81;94326.00;5105739;28;20044;-75
2024/01/20 09:03:38;;;;;;;5.13;2.42;;;;;;;-2.87;89.82;94327.72;5105780;28;20272;-75
2024/01/20 09:06:04;;;;;;;4.05;2.70;;;;;;;-2.86;88.56;94319.69;5106107;28;20234;-75
2024/01/20 09:08:30;;;;;;;6.50;2.92;;;;;;;-2.75;88.90;94325.97;5106212;28;20046;-74
2024/01/20 09:10:56;;;;;;;6.47;3.13;;;;;;;-2.80;88.02;94328.47;5105789;28;20015;-74
2024/01/20 09:13:21;;;;;;;6.53;2.78;;;;;;;-2.82;87.85;94322.66;5105970;28;20233;-74
2024/01/20 09:15:47;;;;;;;6.35;3.05;;;;;;;-2.77;88.27;94330.63;5106009;28;20055;-74
2024/01/20 09:18:16;;;;;;;5.90;2.60;;;;;;;-2.75;87.30;94328.59;5105972;28;20042;-74
2024/01/20 09:20:41;;;;;;;8.00;3.13;;;;;;;-2.69;86.86;94340.75;5105842;28;20330;-74
2024/01/20 09:23:07;;;;;;;7.15;3.22;;;;;;;-2.71;87.34;94340.19;5105653;28;20042;-73
2024/01/20 09:25:32;;;;;;;7.93;3.20;;;;;;;-2.78;86.92;94352.53;5104587;28;20035;-74
2024/01/20 09:27:59;;;;;;;7.90;3.67;;;;;;;-2.87;86.44;94348.59;5105667;28;20016;-73
2024/01/20 09:30:25;;;;;;;7.97;3.58;;;;;;;-2.82;86.91;94335.72;5104969;28;20016;-73
2024/01/20 09:32:50;;;;;;;10.10;3.00;;;;;;;-2.76;86.56;94334.03;5105767;28;20261;-74
2024/01/20 09:35:16;;;;;;;11.05;3.53;;;;;;;-2.75;87.17;94351.28;5105421;28;20024;-74
2024/01/20 09:37:41;;;;;;;8.05;4.28;;;;;;;-2.90;86.11;94352.44;5105552;28;20350;-74
2024/01/20 09:40:08;;;;;;;9.00;3.92;;;;;;;-2.96;86.59;94347.31;5105292;28;20016;-74
2024/01/20 09:42:34;;;;;;;7.85;4.18;;;;;;;-2.95;86.90;94356.72;5105403;28;20102;-74
2024/01/20 09:45:00;;;;;;;14.43;4.53;;;;;;;-2.96;87.19;94355.91;5105335;28;20019;-74
2024/01/20 09:47:26;;;;;;;10.05;4.22;;;;;;;-2.99;86.15;94365.97;5105094;28;20039;-74
2024/01/20 09:49:52;;;;;;;7.32;3.88;;;;;;;-2.99;85.39;94361.59;5105165;28;20023;-74
2024/01/20 09:52:29;;;;;;;9.50;4.18;;;;;;;-3.04;87.08;94354.38;5105268;28;20020;-74
2024/01/20 09:55:03;;;;;;;8.35;4.72;;;;;;;-2.99;87.59;94350.31;5105120;28;20039;-74
2024/01/20 09:57:31;;;;;;;9.13;4.57;;;;;;;-2.99;86.69;94358.97;5105071;28;20055;-74
2024/01/20 09:59:58;;;;;;;11.18;5.70;;;;;;;-3.02;87.04;94347.13;5105027;28;20047;-75
2024/01/20 10:02:28;;;;;;;9.65;5.25;;;;;;;-3.10;86.75;94360.47;5104733;28;20035;-75
2024/01/20 10:04:58;;;;;;;10.43;5.07;;;;;;;-3.20;85.33;94346.34;5104940;28;20097;-75
2024/01/20 10:07:31;;;;;;;9.15;4.90;;;;;;;-3.16;85.59;94342.28;5105018;28;20028;-75
2024/01/20 10:09:57;;;;;;;8.73;5.13;;;;;;;-3.16;86.10;94340.47;5104734;28;20028;-73
2024/01/20 10:12:23;;;;;;;9.70;5.18;;;;;;;-3.10;86.20;94344.03;5104612;28;20015;-75
2024/01/20 10:14:52;;;;;;;16.05;5.28;;;;;;;-3.07;85.48;94344.41;5104748;28;20028;-75
2024/01/20 10:17:18;;;;;;;11.65;5.75;;;;;;;-3.04;85.69;94349.16;5104930;28;20028;-74
2024/01/20 10:19:44;;;;;;;15.73;5.85;;;;;;;-3.08;86.54;94337.56;5104662;28;20032;-75
2024/01/20 10:22:10;;;;;;;12.20;6.22;;;;;;;-3.05;86.98;94337.16;5104329;28;20032;-74
2024/01/20 10:24:49;;;;;;;14.82;6.00;;;;;;;-2.98;87.78;94341.50;5104539;28;20218;-75
2024/01/20 10:27:25;;;;;;;15.38;7.35;;;;;;;-2.92;86.86;94336.22;5104530;28;20042;-74
2024/01/20 10:29:51;;;;;;;10.93;6.47;;;;;;;-2.94;85.70;94337.44;5104735;28;20028;-75
2024/01/20 10:32:17;;;;;;;11.45;5.60;;;;;;;-2.97;87.29;94338.69;5104595;28;20020;-76
2024/01/20 10:34:44;;;;;;;13.55;5.60;;;;;;;-2.86;86.44;94340.56;5104034;28;20389;-75
2024/01/20 10:37:13;;;;;;;12.65;6.35;;;;;;;-2.88;86.44;94331.38;5104265;28;20024;-75
2024/01/20 10:39:44;;;;;;;12.55;5.53;;;;;;;-2.79;86.29;94334.47;5103061;28;20040;-75
2024/01/20 10:42:14;;;;;;;19.05;7.82;;;;;;;-2.76;85.58;94329.63;5102951;28;20032;-75
2024/01/20 10:45:06;;;;;;;14.27;5.97;;;;;;;-2.73;85.18;94331.78;5104189;28;20214;-74
2024/01/20 10:47:36;;;;;;;12.73;6.68;;;;;;;-2.76;85.83;94340.06;5104023;28;20256;-75
2024/01/20 10:50:04;;;;;;;15.50;6.03;;;;;;;-2.89;88.03;94338.41;5104037;28;20214;-75
2024/01/20 10:52:37;;;;;;;13.27;6.05;;;;;;;-2.78;86.25;94336.09;5102821;28;20028;-74
2024/01/20 10:55:03;;;;;;;13.90;6.00;;;;;;;-2.71;86.26;94327.13;5102840;28;20027;-75
2024/01/20 10:57:29;;;;;;;14.13;6.55;;;;;;;-2.67;86.49;94333.50;5103992;28;20218;-75
2024/01/20 10:59:58;;;;;;;16.42;7.65;;;;;;;-2.74;86.93;94324.97;5103744;28;20027;-75
2024/01/20 11:02:25;;;;;;;13.40;6.82;;;;;;;-2.65;87.19;94321.03;5103391;28;20051;-75
2024/01/20 11:04:51;;;;;;;16.35;6.53;;;;;;;-2.72;86.27;94336.00;5103631;28;20058;-75
2024/01/20 11:07:24;;;;;;;13.82;6.28;;;;;;;-2.72;86.63;94330.00;5103887;28;20027;-74
2024/01/20 11:09:57;;;;;;;18.27;6.50;;;;;;;-2.82;86.78;94325.28;5103980;28;20276;-75
2024/01/20 11:12:24;;;;;;;19.42;6.57;;;;;;;-2.90;86.62;94322.97;5103848;28;20024;-74
2024/01/20 11:14:51;;;;;;;18.13;6.80;;;;;;;-2.91;87.03;94316.94;5103797;28;20329;-74
2024/01/20 11:17:17;;;;;;;14.00;6.22;;;;;;;-2.84;87.29;94322.09;5102648;28;20050;-75
2024/01/20 11:19:43;;;;;;;14.70;6.30;;;;;;;-2.84;87.48;94327.31;5103399;28;20211;-75
2024/01/20 11:22:31;;;;;;;11.13;5.35;;;;;;;-2.87;87.25;94322.50;5103360;28;20027;-74
2024/01/20 11:24:57;;;;;;;11.40;6.18;;;;;;;-2.89;87.98;94319.31;5103256;28;20023;-75
2024/01/20 11:27:23;;;;;;;14.60;5.97;;;;;;;-2.79;88.84;94313.59;5103178;28;20114;-75
2024/01/20 11:29:48;;;;;;;13.05;6.45;;;;;;;-2.72;88.52;94322.16;5103512;28;20020;-74